Time;durP1;ratioP1;P1;durP2;ratioP2;P2;SDS_P1;SDS_P2;PMS_P1;PMS_P2;Temp;Humidity;BMP_temperature;BMP_pressure;BME280_temperature;BME280_humidity;BME280_pressure;Samples;Min_cycle;Max_cycle;Signal;HPM_P1;HPM_P2
2022/12/18 03:53:04;;;;;;;;;;;;;;;-10.43;100.00;97367.50;4991690;28;19964;-92
2022/12/18 03:55:51;;;;;;;;;;;;;;;-10.35;100.00;97358.16;4950308;29;19914;-91
2022/12/18 03:58:18;;;;;;;;;;;;;;;-10.14;100.00;97362.28;4964518;28;19997;-91
2022/12/18 04:04:21;;;;;;;;;;;;;;;-10.31;100.00;97359.84;4997064;28;19920;-92
2022/12/18 04:06:49;;;;;;;;;;;;;;;-10.49;100.00;97367.56;4964931;28;20383;-90
2022/12/18 04:09:16;;;;;;;;;;;;;;;-10.55;100.00;97365.84;4981337;28;19913;-91
2022/12/18 04:11:50;;;;;;;;;;;;;;;-10.64;100.00;97365.03;4964339;28;19960;-90
2022/12/18 04:14:16;;;;;;;;;;;;;;;-10.68;100.00;97365.03;4969225;28;19966;-90
2022/12/18 04:16:41;;;;;;;;;;;;;;;-10.63;100.00;97371.78;4963124;28;19910;-91
2022/12/18 04:19:11;;;;;;;;;;;;;;;-10.31;100.00;97374.25;4958706;28;19925;-91
2022/12/18 04:21:40;;;;;;;;;;;;;;;-10.31;100.00;97364.94;4965282;28;20016;-91
2022/12/18 04:27:26;;;;;;;;;;;;;;;-9.93;100.00;97365.59;4965475;28;19924;-91
2022/12/18 04:29:58;;;;;;;;;;;;;;;-9.98;100.00;97363.06;4947663;28;19925;-91
2022/12/18 04:32:23;;;;;;;;;;;;;;;-10.13;100.00;97374.16;4967255;28;20005;-90
2022/12/18 04:34:49;;;;;;;;;;;;;;;-10.12;100.00;97369.94;4952284;28;20000;-91
2022/12/18 04:37:14;;;;;;;;;;;;;;;-10.21;100.00;97375.88;4953290;28;20445;-91
2022/12/18 04:39:41;;;;;;;;;;;;;;;-10.24;100.00;97378.44;4963786;28;19917;-91
2022/12/18 04:42:15;;;;;;;;;;;;;;;-10.17;100.00;97376.72;4949832;28;20121;-91
2022/12/18 04:44:40;;;;;;;;;;;;;;;-10.24;100.00;97375.91;4951360;28;19914;-91
2022/12/18 04:47:07;;;;;;;;;;;;;;;-10.39;100.00;97389.56;4954431;28;19929;-91
2022/12/18 04:49:32;;;;;;;;;;;;;;;-10.32;100.00;97386.13;4981194;28;19917;-91
2022/12/18 04:51:58;;;;;;;;;;;;;;;-10.36;100.00;97386.13;4983589;28;19917;-92
2022/12/18 04:54:23;;;;;;;;;;;;;;;-10.46;100.00;97387.88;4962275;28;19932;-92
2022/12/18 04:56:57;;;;;;;;;;;;;;;-10.41;100.00;97403.94;4962494;28;19922;-90
2022/12/18 04:59:23;;;;;;;;;;;;;;;-10.47;100.00;97401.41;4960807;28;19935;-91
2022/12/18 05:01:48;;;;;;;;;;;;;;;-10.32;100.00;97398.00;4961800;28;19930;-91
2022/12/18 05:04:14;;;;;;;;;;;;;;;-10.47;100.00;97399.72;4962751;28;19977;-91
2022/12/18 05:06:39;;;;;;;;;;;;;;;-10.43;100.00;97403.09;4971229;28;19934;-91
2022/12/18 05:09:05;;;;;;;;;;;;;;;-10.34;100.00;97404.78;4963124;28;19918;-94
2022/12/18 05:11:30;;;;;;;;;;;;;;;-10.16;100.00;97398.75;4961430;28;20383;-93
2022/12/18 05:13:56;;;;;;;;;;;;;;;-10.00;100.00;97392.75;4968008;28;19936;-93
2022/12/18 05:16:21;;;;;;;;;;;;;;;-10.00;100.00;97387.66;4959144;28;19909;-94
2022/12/18 05:18:47;;;;;;;;;;;;;;;-9.73;100.00;97379.06;4969187;28;19914;-94
2022/12/18 05:21:12;;;;;;;;;;;;;;;-9.66;100.00;97390.03;4950817;28;19917;-94
2022/12/18 05:23:38;;;;;;;;;;;;;;;-9.75;100.00;97390.97;4955926;28;19922;-93
2022/12/18 05:26:04;;;;;;;;;;;;;;;-9.84;100.00;97406.28;4955676;28;19920;-93
2022/12/18 05:28:30;;;;;;;;;;;;;;;-9.98;100.00;97402.09;4961859;28;19933;-94
2022/12/18 05:31:21;;;;;;;;;;;;;;;-9.94;100.00;97400.38;4957976;28;20268;-93
2022/12/18 05:33:46;;;;;;;;;;;;;;;-9.71;100.00;97392.63;4963637;28;19940;-94
2022/12/18 05:36:14;;;;;;;;;;;;;;;-9.82;100.00;97397.78;4974711;28;19926;-94
2022/12/18 05:38:40;;;;;;;;;;;;;;;-9.59;100.00;97391.69;4958115;28;20383;-95
2022/12/18 05:41:05;;;;;;;;;;;;;;;-9.76;100.00;97391.78;4957108;28;19924;-93
2022/12/18 05:43:34;;;;;;;;;;;;;;;-9.59;100.00;97389.16;4955550;28;19918;-94
2022/12/18 05:46:02;;;;;;;;;;;;;;;-9.96;100.00;97389.34;4954513;28;19921;-94
2022/12/18 05:48:28;;;;;;;;;;;;;;;-9.88;100.00;97384.25;4952896;28;19925;-93
2022/12/18 05:51:10;;;;;;;;;;;;;;;-9.82;100.00;97394.41;4965100;28;19991;-94
2022/12/18 05:53:36;;;;;;;;;;;;;;;-9.88;100.00;97395.25;4971624;28;19959;-93
2022/12/18 05:56:07;;;;;;;;;;;;;;;-9.53;100.00;97391.66;4983337;28;19913;-94
2022/12/18 05:58:32;;;;;;;;;;;;;;;-9.60;100.00;97393.41;4968670;28;19914;-94
2022/12/18 06:01:29;;;;;;;;;;;;;;;-9.67;100.00;97389.22;4966659;28;20487;-93
2022/12/18 06:03:55;;;;;;;;;;;;;;;-9.67;100.00;97404.47;4966727;28;19914;-94
2022/12/18 06:06:22;;;;;;;;;;;;;;;-9.75;100.00;97404.53;4966308;28;19921;-94
2022/12/18 06:09:09;;;;;;;;;;;;;;;-9.75;100.00;97401.16;4966632;28;19914;-93
2022/12/18 06:11:37;;;;;;;;;;;;;;;-9.73;100.00;97415.53;4980013;28;20016;-94
2022/12/18 06:14:05;;;;;;;;;;;;;;;-9.70;100.00;97413.84;4967194;28;19933;-94
2022/12/18 06:16:31;;;;;;;;;;;;;;;-9.91;100.00;97412.25;4977818;28;19921;-93
2022/12/18 06:18:57;;;;;;;;;;;;;;;-10.11;100.00;97413.16;4997205;28;19905;-93
2022/12/18 06:21:23;;;;;;;;;;;;;;;-10.09;100.00;97414.00;4959329;28;19923;-94
2022/12/18 06:23:48;;;;;;;;;;;;;;;-9.72;100.00;97408.78;4962784;28;19922;-93
2022/12/18 06:26:14;;;;;;;;;;;;;;;-9.71;100.00;97410.44;4975879;28;19922;-94
2022/12/18 06:29:02;;;;;;;;;;;;;;;-9.90;100.00;97417.31;4965095;28;19920;-94
2022/12/18 06:31:28;;;;;;;;;;;;;;;-9.84;100.00;97413.91;4951974;28;20001;-93
2022/12/18 06:33:53;;;;;;;;;;;;;;;-9.79;100.00;97424.91;4954437;28;19997;-94
2022/12/18 06:36:20;;;;;;;;;;;;;;;-9.84;100.00;97421.53;4953760;28;20419;-95
2022/12/18 06:38:46;;;;;;;;;;;;;;;-9.81;100.00;97417.28;4954125;28;20410;-93
2022/12/18 06:41:13;;;;;;;;;;;;;;;-9.76;100.00;97410.47;4951743;28;19917;-94
2022/12/18 06:43:38;;;;;;;;;;;;;;;-9.67;100.00;97416.38;4951182;28;19961;-94
2022/12/18 06:46:04;;;;;;;;;;;;;;;-9.66;100.00;97407.88;4950822;28;19949;-94
2022/12/18 06:48:30;;;;;;;;;;;;;;;-9.48;100.00;97405.22;4951184;28;19924;-94
2022/12/18 06:50:55;;;;;;;;;;;;;;;-9.37;100.00;97411.09;4954294;28;19925;-94
2022/12/18 06:53:21;;;;;;;;;;;;;;;-9.23;100.00;97402.53;4953662;28;19992;-95
2022/12/18 06:55:46;;;;;;;;;;;;;;;-9.22;100.00;97415.25;4957922;28;19920;-93
2022/12/18 06:58:46;;;;;;;;;;;;;;;-9.18;100.00;97406.75;4967948;28;19914;-93
2022/12/18 07:01:12;;;;;;;;;;;;;;;-9.13;100.00;97415.19;4973372;28;19920;-95
2022/12/18 07:03:41;;;;;;;;;;;;;;;-9.08;100.00;97428.75;4967722;28;19914;-94
2022/12/18 07:06:12;;;;;;;;;;;;;;;-9.03;100.00;97431.25;4983508;28;19914;-94
2022/12/18 07:08:37;;;;;;;;;;;;;;;-8.99;100.00;97440.56;4965535;28;19964;-94
2022/12/18 07:14:32;;;;;;;;;;;;;;;-8.91;100.00;97446.47;5013726;28;19957;-95
2022/12/18 07:16:57;;;;;;;;;;;;;;;-8.87;100.00;97454.94;4982307;28;19929;-95
2022/12/18 07:19:23;;;;;;;;;;;;;;;-8.86;100.00;97457.44;4968057;28;19918;-95
2022/12/18 07:21:49;;;;;;;;;;;;;;;-8.80;100.00;97457.41;4967906;28;19924;-94
2022/12/18 07:24:14;;;;;;;;;;;;;;;-8.72;100.00;97470.09;4968051;28;20436;-95
2022/12/18 07:26:40;;;;;;;;;;;;;;;-8.69;100.00;97456.47;4990908;28;20303;-94
2022/12/18 07:32:34;;;;;;;;;;;;;;;-8.61;100.00;97470.03;5004068;28;19924;-94
2022/12/18 07:34:59;;;;;;;;;;;;;;;-8.57;100.00;97459.78;4985677;28;19961;-94
2022/12/18 07:37:25;;;;;;;;;;;;;;;-8.57;100.00;97469.13;4994589;28;19905;-94
2022/12/18 07:39:50;;;;;;;;;;;;;;;-8.53;100.00;97472.50;4987125;28;19905;-94
2022/12/18 07:42:43;;;;;;;;;;;;;;;-8.48;100.00;97474.16;4985899;28;19924;-92
2022/12/18 07:45:09;;;;;;;;;;;;;;;-8.44;100.00;97472.44;4982214;28;20013;-95
2022/12/18 07:47:36;;;;;;;;;;;;;;;-8.41;100.00;97480.06;4989783;28;19913;-95
2022/12/18 07:50:01;;;;;;;;;;;;;;;-8.38;100.00;97483.44;4990821;28;19929;-95
2022/12/18 07:55:57;;;;;;;;;;;;;;;-8.20;100.00;97486.63;5007248;28;19921;-94
2022/12/18 07:58:22;;;;;;;;;;;;;;;-8.14;100.00;97476.38;4973887;28;20008;-95
2022/12/18 08:04:17;;;;;;;;;;;;;;;-8.09;100.00;97466.94;4998658;28;19921;-95
2022/12/18 08:10:11;;;;;;;;;;;;;;;-7.93;100.00;97471.03;4985171;28;19933;-94
2022/12/18 08:19:21;;;;;;;;;;;;;;;-7.93;100.00;97463.38;4986376;28;19920;-95
2022/12/18 08:31:35;;;;;;;;;;;;;;;-7.77;100.00;97464.06;4985766;28;19926;-94
2022/12/18 08:37:28;;;;;;;;;;;;;;;-7.62;100.00;97447.69;4995773;28;19950;-92
2022/12/18 08:46:27;;;;;;;;;;;;;;;-7.46;100.00;97466.22;4983606;28;19906;-95
2022/12/18 08:48:53;;;;;;;;;;;;;;;-7.46;100.00;97474.72;4965331;28;20012;-95
2022/12/18 08:51:19;;;;;;;;;;;;;;;-7.43;100.00;97468.75;4964609;28;19917;-96
2022/12/18 08:57:12;;;;;;;;;;;;;;;-7.31;100.00;97454.94;4998725;28;19913;-96
2022/12/18 08:59:38;;;;;;;;;;;;;;;-7.11;100.00;97465.75;4965174;28;19980;-95
2022/12/18 09:02:04;;;;;;;;;;;;;;;-6.24;100.00;97466.09;4963453;28;19914;-95
2022/12/18 09:04:29;;;;;;;;;;;;;;;-6.71;100.00;97460.03;4964499;28;19957;-95
2022/12/18 09:06:55;;;;;;;;;;;;;;;-6.91;100.00;97466.31;4965767;28;19914;-94
2022/12/18 09:09:20;;;;;;;;;;;;;;;-7.00;100.00;97458.78;4964766;28;19921;-89
2022/12/18 09:11:46;;;;;;;;;;;;;;;-7.02;100.00;97454.56;4966302;28;19925;-92
2022/12/18 09:14:12;;;;;;;;;;;;;;;-6.76;100.00;97449.88;4981436;28;20248;-94
2022/12/18 09:16:38;;;;;;;;;;;;;;;-6.93;100.00;97452.72;4962755;28;19929;-94
2022/12/18 09:22:31;;;;;;;;;;;;;;;-5.68;100.00;97431.69;4997172;28;19969;-95
2022/12/18 09:25:22;;;;;;;;;;;;;;;-5.63;100.00;97436.75;4966361;28;19917;-95
2022/12/18 09:27:48;;;;;;;;;;;;;;;-5.74;100.00;97428.41;4968285;28;19937;-94
2022/12/18 09:30:13;;;;;;;;;;;;;;;-5.54;100.00;97430.56;4967909;28;19917;-94
2022/12/18 09:32:39;;;;;;;;;;;;;;;-5.16;100.00;97419.50;4966486;28;19925;-95
2022/12/18 09:35:29;;;;;;;;;;;;;;;-5.28;100.00;97414.63;4967173;28;19913;-94
2022/12/18 09:37:55;;;;;;;;;;;;;;;-5.07;100.00;97410.75;4982215;28;19906;-94
2022/12/18 09:40:25;;;;;;;;;;;;;;;-5.15;100.00;97394.69;4986341;28;19913;-95
2022/12/18 09:42:57;;;;;;;;;;;;;;;-5.30;100.00;97401.00;4973113;28;19956;-94
2022/12/18 09:45:23;;;;;;;;;;;;;;;-5.23;100.00;97393.16;4961410;28;20443;-94
2022/12/18 09:47:51;;;;;;;;;;;;;;;-5.27;100.00;97408.63;4966533;28;19921;-92
2022/12/18 09:50:29;;;;;;;;;;;;;;;-5.26;100.00;97394.94;4972229;28;19956;-93
2022/12/18 09:52:58;;;;;;;;;;;;;;;-5.28;100.00;97409.50;4977733;28;19913;-92
2022/12/18 09:55:43;;;;;;;;;;;;;;;-4.98;100.00;97405.41;4991830;28;20544;-92
2022/12/18 09:58:11;;;;;;;;;;;;;;;-4.77;100.00;97401.47;4970273;28;19960;-92
2022/12/18 10:00:37;;;;;;;;;;;;;;;-5.00;100.00;97396.88;4964202;28;20690;-92
2022/12/18 10:03:24;;;;;;;;;;;;;;;-5.12;100.00;97412.59;4961788;28;19913;-93
2022/12/18 10:06:08;;;;;;;;;;;;;;;-5.47;100.00;97420.16;4960300;28;19918;-93
2022/12/18 10:08:55;;;;;;;;;;;;;;;-4.87;100.00;97415.41;4992136;28;20063;-93
2022/12/18 10:11:23;;;;;;;;;;;;;;;-4.91;100.00;97417.22;4981734;28;20008;-91
2022/12/18 10:13:54;;;;;;;;;;;;;;;-4.57;100.00;97403.56;4975413;28;19920;-91
2022/12/18 10:16:26;;;;;;;;;;;;;;;-5.12;100.00;97415.16;4963030;28;19928;-92
2022/12/18 10:18:59;;;;;;;;;;;;;;;-4.62;100.00;97400.28;4969665;28;19925;-91
2022/12/18 10:21:34;;;;;;;;;;;;;;;-4.81;100.00;97405.00;4963016;28;19921;-90
2022/12/18 10:24:15;;;;;;;;;;;;;;;-4.57;100.00;97398.44;4967963;28;19924;-91
2022/12/18 10:26:41;;;;;;;;;;;;;;;-4.92;100.00;97410.41;4959416;28;20048;-92
2022/12/18 10:29:11;;;;;;;;;;;;;;;-5.21;100.00;97401.63;4964078;28;20040;-92
2022/12/18 10:31:45;;;;;;;;;;;;;;;-5.57;100.00;97410.13;4966670;28;19924;-91
2022/12/18 10:34:11;;;;;;;;;;;;;;;-5.60;100.00;97413.63;4970469;28;19983;-91
2022/12/18 10:36:40;;;;;;;;;;;;;;;-5.19;100.00;97409.31;4977399;28;19936;-91
2022/12/18 10:39:15;;;;;;;;;;;;;;;-5.51;100.00;97412.56;4967079;28;19933;-91
2022/12/18 10:41:40;;;;;;;;;;;;;;;-5.90;100.00;97414.22;4980407;28;19914;-91
2022/12/18 10:44:15;;;;;;;;;;;;;;;-5.70;100.00;97412.09;4964161;28;19909;-91
2022/12/18 10:46:43;;;;;;;;;;;;;;;-5.53;100.00;97410.06;4955025;28;19917;-91
2022/12/18 10:49:19;;;;;;;;;;;;;;;-5.34;100.00;97418.16;4952768;28;19928;-92
2022/12/18 10:51:50;;;;;;;;;;;;;;;-5.31;100.00;97417.25;4981982;28;19953;-91
2022/12/18 10:54:15;;;;;;;;;;;;;;;-5.64;100.00;97421.38;4962970;28;19937;-92
2022/12/18 10:56:41;;;;;;;;;;;;;;;-5.41;100.00;97423.47;4966773;28;20568;-91
2022/12/18 10:59:08;;;;;;;;;;;;;;;-5.59;100.00;97415.28;4981614;28;19913;-91
2022/12/18 11:01:51;;;;;;;;;;;;;;;-5.84;100.00;97424.34;4981944;28;19953;-91
2022/12/18 11:04:24;;;;;;;;;;;;;;;-5.23;100.00;97426.50;4979444;28;19975;-91
2022/12/18 11:06:56;;;;;;;;;;;;;;;-5.36;100.00;97419.94;4963693;28;19941;-91
2022/12/18 11:09:23;;;;;;;;;;;;;;;-4.55;100.00;97412.91;4983246;28;19914;-92
2022/12/18 11:15:24;;;;;;;;;;;;;;;-5.49;100.00;97421.91;5001922;28;19955;-92
2022/12/18 11:17:54;;;;;;;;;;;;;;;-5.54;100.00;97412.63;4991983;28;19972;-90
2022/12/18 11:20:35;;;;;;;;;;;;;;;-5.75;100.00;97416.47;4983097;28;19929;-91
2022/12/18 11:23:02;;;;;;;;;;;;;;;-5.77;100.00;97416.53;4964709;28;19921;-91
2022/12/18 11:25:28;;;;;;;;;;;;;;;-5.88;100.00;97421.00;4991748;28;19913;-91
2022/12/18 11:27:55;;;;;;;;;;;;;;;-5.48;100.00;97413.34;4973857;28;19913;-91
2022/12/18 11:30:31;;;;;;;;;;;;;;;-5.14;100.00;97420.28;4982626;28;19914;-91
2022/12/18 11:33:10;;;;;;;;;;;;;;;-5.00;100.00;97410.59;4969154;28;19914;-91
2022/12/18 11:35:49;;;;;;;;;;;;;;;-5.13;100.00;97413.44;4964533;28;19913;-91
2022/12/18 11:44:52;;;;;;;;;;;;;;;-4.60;100.00;97383.09;4981489;28;19913;-91
2022/12/18 11:47:21;;;;;;;;;;;;;;;-4.59;100.00;97383.06;4962227;28;19917;-92
2022/12/18 11:49:48;;;;;;;;;;;;;;;-4.82;100.00;97378.50;4981321;28;19921;-92
2022/12/18 11:52:35;;;;;;;;;;;;;;;-4.87;100.00;97385.47;4968124;28;19921;-92
2022/12/18 11:55:12;;;;;;;;;;;;;;;-5.21;100.00;97385.41;4970561;28;19918;-92
2022/12/18 11:57:37;;;;;;;;;;;;;;;-4.57;100.00;97373.59;4970566;28;19913;-91
2022/12/18 12:00:15;;;;;;;;;;;;;;;-4.76;100.00;97375.81;4972747;28;19938;-92
2022/12/18 12:02:47;;;;;;;;;;;;;;;-4.63;100.00;97360.91;4970555;28;19914;-93
2022/12/18 12:05:16;;;;;;;;;;;;;;;-4.63;100.00;97363.47;4972619;28;20008;-92
2022/12/18 12:07:56;;;;;;;;;;;;;;;-4.25;100.00;97363.41;4971879;28;19920;-92
2022/12/18 12:10:24;;;;;;;;;;;;;;;-4.70;100.00;97351.69;4977687;28;20004;-92
2022/12/18 12:13:02;;;;;;;;;;;;;;;-4.68;100.00;97343.97;4985056;28;19918;-92
2022/12/18 12:15:43;;;;;;;;;;;;;;;-4.53;100.00;97348.69;4985156;28;20581;-93
2022/12/18 12:18:15;;;;;;;;;;;;;;;-4.70;100.00;97356.81;4977312;28;19925;-92
2022/12/18 12:20:59;;;;;;;;;;;;;;;-5.02;100.00;97355.06;4977307;28;19919;-92
2022/12/18 12:23:43;;;;;;;;;;;;;;;-4.99;100.00;97349.88;4973190;28;19999;-92
2022/12/18 12:26:19;;;;;;;;;;;;;;;-5.10;100.00;97344.13;4968835;28;19958;-92
2022/12/18 12:28:48;;;;;;;;;;;;;;;-4.82;100.00;97336.63;4970725;28;19956;-92
2022/12/18 12:31:19;;;;;;;;;;;;;;;-5.00;100.00;97345.59;4973457;28;19917;-92
2022/12/18 12:33:48;;;;;;;;;;;;;;;-4.91;100.00;97347.09;4974752;28;20599;-92
2022/12/18 12:36:34;;;;;;;;;;;;;;;-4.60;100.00;97340.31;4968800;28;19980;-93
2022/12/18 12:39:05;;;;;;;;;;;;;;;-4.88;100.00;97344.47;4949419;28;20125;-92
2022/12/18 12:47:33;;;;;;;;;;;;;;;-5.26;100.00;97336.81;4988426;28;19957;-92
2022/12/18 12:50:00;;;;;;;;;;;;;;;-5.48;100.00;97341.56;4972555;28;19922;-92
2022/12/18 12:52:34;;;;;;;;;;;;;;;-5.43;100.00;97343.19;4973387;28;19914;-92
2022/12/18 12:55:01;;;;;;;;;;;;;;;-5.63;100.00;97352.19;4971640;28;20541;-92
2022/12/18 12:57:33;;;;;;;;;;;;;;;-5.66;100.00;97352.25;4984409;28;19957;-92
2022/12/18 13:03:51;;;;;;;;;;;;;;;-5.51;100.00;97361.31;4997407;28;19967;-92
2022/12/18 13:10:03;;;;;;;;;;;;;;;-5.51;100.00;97335.69;4996799;28;19960;-92
2022/12/18 13:15:22;;;;;;;;;;;;;;;-5.36;100.00;97335.34;4995604;28;19917;-91
2022/12/18 13:17:47;;;;;;;;;;;;;;;-5.34;100.00;97333.56;4985629;28;19914;-91
2022/12/18 13:20:16;;;;;;;;;;;;;;;-5.56;100.00;97328.09;4997451;28;19920;-93
2022/12/18 13:22:44;;;;;;;;;;;;;;;-5.30;100.00;97329.22;4965581;28;19917;-92
2022/12/18 13:25:42;;;;;;;;;;;;;;;-5.26;100.00;97329.13;4979234;28;19928;-93
2022/12/18 13:28:08;;;;;;;;;;;;;;;-5.20;100.00;97330.69;4929637;28;19977;-92
2022/12/18 13:30:34;;;;;;;;;;;;;;;-5.27;100.00;97334.28;4963140;28;19924;-92
2022/12/18 13:33:18;;;;;;;;;;;;;;;-5.39;100.00;97337.97;4972174;28;19913;-92
2022/12/18 13:35:46;;;;;;;;;;;;;;;-5.25;100.00;97332.53;4961575;28;19914;-92
2022/12/18 13:38:44;;;;;;;;;;;;;;;-5.32;100.00;97336.94;4979646;28;20000;-92
2022/12/18 13:41:13;;;;;;;;;;;;;;;-5.62;100.00;97343.59;4965018;28;19957;-92
2022/12/18 13:43:46;;;;;;;;;;;;;;;-5.68;100.00;97338.59;4982412;28;19921;-92
2022/12/18 13:46:32;;;;;;;;;;;;;;;-5.68;100.00;97343.72;4982062;28;19920;-92
2022/12/18 13:49:00;;;;;;;;;;;;;;;-5.75;100.00;97335.34;4958263;28;19956;-92
2022/12/18 13:51:27;;;;;;;;;;;;;;;-5.71;100.00;97346.34;4986005;28;19917;-92
2022/12/18 13:57:32;;;;;;;;;;;;;;;-5.75;100.00;97337.06;5005069;28;19917;-92
2022/12/18 14:00:03;;;;;;;;;;;;;;;-5.83;100.00;97333.84;4982477;28;19972;-92
2022/12/18 14:02:34;;;;;;;;;;;;;;;-5.73;100.00;97337.88;4993254;28;19997;-92
2022/12/18 14:04:59;;;;;;;;;;;;;;;-5.73;100.00;97340.44;4982210;28;19976;-92
2022/12/18 14:07:27;;;;;;;;;;;;;;;-5.83;100.00;97341.50;4976176;28;19945;-92
2022/12/18 14:09:56;;;;;;;;;;;;;;;-5.90;100.00;97337.38;4979535;28;19918;-91
2022/12/18 14:15:20;;;;;;;;;;;;;;;-5.83;100.00;97331.28;4982355;28;19936;-92
2022/12/18 14:17:46;;;;;;;;;;;;;;;-5.80;100.00;97333.75;4988384;28;19920;-92
2022/12/18 14:20:15;;;;;;;;;;;;;;;-5.99;100.00;97339.28;4971118;28;19913;-92
2022/12/18 14:22:45;;;;;;;;;;;;;;;-6.07;100.00;97338.63;4981417;28;19936;-92
2022/12/18 14:25:36;;;;;;;;;;;;;;;-6.13;100.00;97333.63;4978618;28;19917;-92
2022/12/18 14:28:14;;;;;;;;;;;;;;;-6.08;100.00;97333.50;5004171;28;19973;-92
2022/12/18 14:30:40;;;;;;;;;;;;;;;-6.13;100.00;97341.28;4986127;28;19925;-92
2022/12/18 14:33:13;;;;;;;;;;;;;;;-6.21;100.00;97355.94;4983540;28;20427;-92
2022/12/18 14:35:58;;;;;;;;;;;;;;;-6.14;100.00;97336.19;4990975;28;19969;-91
2022/12/18 14:38:40;;;;;;;;;;;;;;;-6.06;100.00;97342.84;4991703;28;19920;-92
2022/12/18 14:44:45;;;;;;;;;;;;;;;-6.33;100.00;97362.16;4990730;28;19924;-93
2022/12/18 14:47:18;;;;;;;;;;;;;;;-6.31;100.00;97354.44;4959751;28;19921;-91
2022/12/18 14:49:43;;;;;;;;;;;;;;;-6.35;100.00;97356.22;4957513;28;19914;-92
2022/12/18 14:52:31;;;;;;;;;;;;;;;-6.29;100.00;97356.09;4966436;28;20530;-92
2022/12/18 14:55:05;;;;;;;;;;;;;;;-6.34;100.00;97350.22;4967176;28;19914;-92
2022/12/18 14:57:37;;;;;;;;;;;;;;;-6.32;100.00;97357.88;4982609;28;19928;-92
2022/12/18 15:00:11;;;;;;;;;;;;;;;-6.39;100.00;97358.88;4991046;28;19913;-92
2022/12/18 15:02:59;;;;;;;;;;;;;;;-6.46;100.00;97353.84;4999566;28;19945;-92
2022/12/18 15:05:45;;;;;;;;;;;;;;;-6.45;100.00;97360.66;4972263;28;20398;-92
2022/12/18 15:08:29;;;;;;;;;;;;;;;-6.45;100.00;97365.78;4977589;28;19917;-92
2022/12/18 15:10:56;;;;;;;;;;;;;;;-6.48;100.00;97373.50;4970627;28;19918;-92
2022/12/18 15:13:27;;;;;;;;;;;;;;;-6.52;100.00;97374.44;4967965;28;20000;-92
2022/12/18 15:15:53;;;;;;;;;;;;;;;-6.49;100.00;97373.53;4974626;28;20038;-92
2022/12/18 15:18:23;;;;;;;;;;;;;;;-6.53;100.00;97369.34;4968994;28;19913;-91
2022/12/18 15:20:50;;;;;;;;;;;;;;;-6.56;100.00;97348.94;4969879;28;19928;-92
2022/12/18 15:23:34;;;;;;;;;;;;;;;-6.61;100.00;97379.72;4965799;28;19922;-93
2022/12/18 15:26:01;;;;;;;;;;;;;;;-6.64;100.00;97369.53;4980987;28;19924;-92
2022/12/18 15:28:47;;;;;;;;;;;;;;;-6.60;100.00;97370.34;4959452;28;19935;-91
2022/12/18 15:31:13;;;;;;;;;;;;;;;-6.62;100.00;97370.34;4956652;28;20015;-92
2022/12/18 15:34:05;;;;;;;;;;;;;;;-6.60;100.00;97368.63;4975445;28;20044;-92
2022/12/18 15:36:31;;;;;;;;;;;;;;;-6.61;100.00;97363.53;4960928;28;19928;-92
2022/12/18 15:39:18;;;;;;;;;;;;;;;-6.65;100.00;97362.72;4971237;28;19960;-93
2022/12/18 15:44:54;;;;;;;;;;;;;;;-6.57;100.00;97375.38;4974451;28;19980;-92
2022/12/18 15:47:20;;;;;;;;;;;;;;;-6.64;100.00;97366.97;4958401;28;19949;-93
2022/12/18 15:49:45;;;;;;;;;;;;;;;-6.70;100.00;97365.38;4958016;28;20359;-93
2022/12/18 15:52:25;;;;;;;;;;;;;;;-6.68;100.00;97373.00;4960005;28;19917;-92
2022/12/18 15:57:39;;;;;;;;;;;;;;;-6.69;100.00;97361.09;4945491;28;19963;-93
2022/12/18 16:00:05;;;;;;;;;;;;;;;-6.72;100.00;97366.28;4962564;28;19913;-92
2022/12/18 16:02:31;;;;;;;;;;;;;;;-6.66;100.00;97355.94;4981407;28;19914;-92
2022/12/18 16:04:56;;;;;;;;;;;;;;;-6.69;100.00;97366.22;4961942;28;20451;-92
2022/12/18 16:07:22;;;;;;;;;;;;;;;-6.64;100.00;97372.09;4966072;28;19968;-93
2022/12/18 16:09:47;;;;;;;;;;;;;;;-6.66;100.00;97372.13;4964387;28;20008;-92
2022/12/18 16:12:18;;;;;;;;;;;;;;;-6.63;100.00;97371.22;4983310;28;20368;-92
2022/12/18 16:14:57;;;;;;;;;;;;;;;-6.59;100.00;97361.78;4982752;28;19907;-92
2022/12/18 16:17:23;;;;;;;;;;;;;;;-6.64;100.00;97354.19;4964007;28;19965;-92
2022/12/18 16:20:15;;;;;;;;;;;;;;;-6.68;100.00;97352.53;4963111;28;19914;-92
2022/12/18 16:22:41;;;;;;;;;;;;;;;-6.66;100.00;97355.94;4958702;28;20006;-91
2022/12/18 16:25:16;;;;;;;;;;;;;;;-6.67;100.00;97354.25;4957685;28;19957;-92
2022/12/18 16:27:42;;;;;;;;;;;;;;;-6.65;100.00;97355.06;4960232;28;20279;-91
2022/12/18 16:30:12;;;;;;;;;;;;;;;-6.63;100.00;97350.78;4960761;28;19924;-92
2022/12/18 16:32:37;;;;;;;;;;;;;;;-6.64;100.00;97356.72;4983864;28;19914;-91
2022/12/18 16:35:03;;;;;;;;;;;;;;;-6.59;100.00;97357.50;4960454;28;19909;-92
2022/12/18 16:37:30;;;;;;;;;;;;;;;-6.67;100.00;97349.97;4956538;28;19913;-92
2022/12/18 16:39:55;;;;;;;;;;;;;;;-6.66;100.00;97350.81;4957070;28;20008;-91
2022/12/18 16:45:49;;;;;;;;;;;;;;;-6.57;100.00;97360.03;4993539;28;19998;-91
2022/12/18 16:48:15;;;;;;;;;;;;;;;-6.60;100.00;97344.75;4962584;28;19917;-92
2022/12/18 16:50:41;;;;;;;;;;;;;;;-6.59;100.00;97337.03;4956123;28;19930;-92
2022/12/18 16:53:07;;;;;;;;;;;;;;;-6.60;100.00;97337.94;4961175;28;19914;-92
2022/12/18 16:55:32;;;;;;;;;;;;;;;-6.62;100.00;97338.81;4969657;28;19913;-92
2022/12/18 16:57:58;;;;;;;;;;;;;;;-6.60;100.00;97339.66;4980435;28;19922;-92
2022/12/18 17:00:23;;;;;;;;;;;;;;;-6.60;100.00;97349.88;4965073;28;19913;-91
2022/12/18 17:02:49;;;;;;;;;;;;;;;-6.59;100.00;97337.03;4972712;28;19968;-91
2022/12/18 17:05:15;;;;;;;;;;;;;;;-6.61;100.00;97332.81;4976179;28;19951;-91
2022/12/18 17:07:41;;;;;;;;;;;;;;;-6.65;100.00;97342.25;4962888;28;19910;-92
2022/12/18 17:10:08;;;;;;;;;;;;;;;-6.69;100.00;97340.63;4965330;28;19924;-92
2022/12/18 17:12:33;;;;;;;;;;;;;;;-6.62;100.00;97331.13;4965669;28;20013;-92
2022/12/18 17:14:59;;;;;;;;;;;;;;;-6.59;100.00;97334.47;4965112;28;20379;-91
2022/12/18 17:20:39;;;;;;;;;;;;;;;-6.61;100.00;97323.41;5009091;28;19906;-92
2022/12/18 17:23:04;;;;;;;;;;;;;;;-6.61;100.00;97313.19;4975366;28;19921;-92
2022/12/18 17:25:30;;;;;;;;;;;;;;;-6.62;100.00;97314.06;4969768;28;20279;-91
2022/12/18 17:28:00;;;;;;;;;;;;;;;-6.57;100.00;97307.16;4992506;28;20003;-92
2022/12/18 17:30:26;;;;;;;;;;;;;;;-6.59;100.00;97319.13;4967960;28;19929;-93
2022/12/18 17:32:58;;;;;;;;;;;;;;;-6.59;100.00;97314.00;4966326;28;19915;-93
2022/12/18 17:35:23;;;;;;;;;;;;;;;-6.55;100.00;97312.25;4966180;28;19917;-92
2022/12/18 17:37:49;;;;;;;;;;;;;;;-6.58;100.00;97312.28;4968632;28;20165;-93
2022/12/18 17:40:22;;;;;;;;;;;;;;;-6.60;100.00;97311.50;4967398;28;19941;-91
2022/12/18 17:42:51;;;;;;;;;;;;;;;-6.58;100.00;97317.41;4965251;28;19921;-93
2022/12/18 17:45:16;;;;;;;;;;;;;;;-6.54;100.00;97314.78;4966225;28;19940;-93
2022/12/18 17:47:48;;;;;;;;;;;;;;;-6.48;100.00;97318.94;4968787;28;19914;-93
2022/12/18 17:50:14;;;;;;;;;;;;;;;-6.46;100.00;97325.72;4977939;28;19905;-93
2022/12/18 17:52:39;;;;;;;;;;;;;;;-6.45;100.00;97322.28;4980091;28;19917;-93
2022/12/18 17:55:13;;;;;;;;;;;;;;;-6.45;100.00;97329.09;4987658;28;20721;-93
2022/12/18 17:57:39;;;;;;;;;;;;;;;-6.41;100.00;97331.56;4980594;28;19968;-92
2022/12/18 18:00:05;;;;;;;;;;;;;;;-6.46;100.00;97337.66;4969270;28;19909;-93
2022/12/18 18:02:36;;;;;;;;;;;;;;;-6.42;100.00;97335.00;4985263;28;19924;-92
2022/12/18 18:05:09;;;;;;;;;;;;;;;-6.43;100.00;97322.25;4967669;28;19914;-93
2022/12/18 18:07:34;;;;;;;;;;;;;;;-6.43;100.00;97320.53;4975672;28;19921;-93
2022/12/18 18:10:00;;;;;;;;;;;;;;;-6.41;100.00;97320.50;4979000;28;19921;-92
2022/12/18 18:15:53;;;;;;;;;;;;;;;-6.38;100.00;97327.28;4976151;28;19957;-92
2022/12/18 18:18:36;;;;;;;;;;;;;;;-6.38;100.00;97330.69;4966551;28;19918;-93
2022/12/18 18:21:28;;;;;;;;;;;;;;;-6.45;100.00;97329.09;4961286;28;19984;-92
2022/12/18 18:23:54;;;;;;;;;;;;;;;-6.53;100.00;97339.50;4980078;28;20111;-91
2022/12/18 18:26:21;;;;;;;;;;;;;;;-6.49;100.00;97332.59;4974266;28;19925;-92
2022/12/18 18:28:57;;;;;;;;;;;;;;;-6.44;100.00;97323.09;4969327;28;20555;-92
2022/12/18 18:31:23;;;;;;;;;;;;;;;-6.44;100.00;97318.84;4973357;28;20283;-92
2022/12/18 18:33:50;;;;;;;;;;;;;;;-6.41;100.00;97310.25;4975471;28;19925;-93